sensor_id;sensor_type;location;lat;lon;timestamp;P1;durP1;ratioP1;P2;durP2;ratioP2
6467;SDS011;3267;48.794;9.928;2024-02-21T05:16:27;6.30;;;3.40;;
6467;SDS011;3267;48.794;9.928;2024-02-21T05:18:53;3.33;;;2.25;;
6467;SDS011;3267;48.794;9.928;2024-02-21T05:21:18;7.82;;;2.83;;
6467;SDS011;3267;48.794;9.928;2024-02-21T05:23:44;9.63;;;2.53;;
6467;SDS011;3267;48.794;9.928;2024-02-21T05:26:10;7.25;;;2.65;;
6467;SDS011;3267;48.794;9.928;2024-02-21T05:28:35;6.10;;;3.00;;
6467;SDS011;3267;48.794;9.928;2024-02-21T05:31:01;11.77;;;2.97;;
6467;SDS011;3267;48.794;9.928;2024-02-21T05:33:27;4.70;;;1.80;;
6467;SDS011;3267;48.794;9.928;2024-02-21T05:35:53;8.65;;;1.98;;
6467;SDS011;3267;48.794;9.928;2024-02-21T05:38:18;10.17;;;2.20;;
6467;SDS011;3267;48.794;9.928;2024-02-21T05:40:44;6.57;;;2.25;;
6467;SDS011;3267;48.794;9.928;2024-02-21T05:43:10;7.22;;;1.98;;
6467;SDS011;3267;48.794;9.928;2024-02-21T05:45:36;7.57;;;2.58;;
6467;SDS011;3267;48.794;9.928;2024-02-21T05:48:02;6.45;;;2.75;;
6467;SDS011;3267;48.794;9.928;2024-02-21T05:50:29;6.15;;;2.83;;
6467;SDS011;3267;48.794;9.928;2024-02-21T05:52:55;6.88;;;2.03;;
6467;SDS011;3267;48.794;9.928;2024-02-21T05:55:21;5.55;;;2.70;;
6467;SDS011;3267;48.794;9.928;2024-02-21T05:57:47;5.70;;;2.70;;
6467;SDS011;3267;48.794;9.928;2024-02-21T06:00:13;4.70;;;2.37;;
6467;SDS011;3267;48.794;9.928;2024-02-21T06:02:39;4.13;;;2.27;;
6467;SDS011;3267;48.794;9.928;2024-02-21T06:05:05;6.10;;;2.20;;
6467;SDS011;3267;48.794;9.928;2024-02-21T06:07:32;8.10;;;2.27;;
6467;SDS011;3267;48.794;9.928;2024-02-21T06:09:59;4.05;;;1.70;;
6467;SDS011;3267;48.794;9.928;2024-02-21T06:12:25;4.72;;;1.65;;
6467;SDS011;3267;48.794;9.928;2024-02-21T06:14:50;6.80;;;1.97;;
6467;SDS011;3267;48.794;9.928;2024-02-21T06:17:17;5.95;;;1.77;;
6467;SDS011;3267;48.794;9.928;2024-02-21T06:19:43;4.63;;;1.92;;
6467;SDS011;3267;48.794;9.928;2024-02-21T06:22:09;3.40;;;1.40;;
6467;SDS011;3267;48.794;9.928;2024-02-21T06:24:35;4.47;;;2.08;;
6467;SDS011;3267;48.794;9.928;2024-02-21T06:27:02;6.97;;;2.17;;
6467;SDS011;3267;48.794;9.928;2024-02-21T06:29:28;2.57;;;2.00;;
6467;SDS011;3267;48.794;9.928;2024-02-21T06:31:54;4.60;;;2.10;;
6467;SDS011;3267;48.794;9.928;2024-02-21T06:34:19;5.77;;;1.90;;
6467;SDS011;3267;48.794;9.928;2024-02-21T06:36:45;4.03;;;1.80;;
6467;SDS011;3267;48.794;9.928;2024-02-21T06:39:11;4.00;;;2.17;;
6467;SDS011;3267;48.794;9.928;2024-02-21T06:41:37;4.50;;;1.97;;
6467;SDS011;3267;48.794;9.928;2024-02-21T06:44:02;4.20;;;2.00;;
6467;SDS011;3267;48.794;9.928;2024-02-21T06:46:28;6.63;;;2.20;;
6467;SDS011;3267;48.794;9.928;2024-02-21T06:48:54;4.80;;;2.00;;
6467;SDS011;3267;48.794;9.928;2024-02-21T06:51:23;4.80;;;2.63;;
6467;SDS011;3267;48.794;9.928;2024-02-21T06:53:50;5.60;;;2.60;;
6467;SDS011;3267;48.794;9.928;2024-02-21T06:56:15;6.40;;;2.77;;
6467;SDS011;3267;48.794;9.928;2024-02-21T06:58:41;4.20;;;1.80;;
6467;SDS011;3267;48.794;9.928;2024-02-21T07:01:08;8.83;;;3.90;;
6467;SDS011;3267;48.794;9.928;2024-02-21T07:03:35;8.13;;;3.00;;
6467;SDS011;3267;48.794;9.928;2024-02-21T07:06:01;6.30;;;2.80;;
6467;SDS011;3267;48.794;9.928;2024-02-21T07:08:27;5.57;;;2.77;;
6467;SDS011;3267;48.794;9.928;2024-02-21T07:10:52;7.40;;;3.30;;
6467;SDS011;3267;48.794;9.928;2024-02-21T07:13:18;7.77;;;3.23;;
6467;SDS011;3267;48.794;9.928;2024-02-21T07:15:44;6.90;;;3.13;;
6467;SDS011;3267;48.794;9.928;2024-02-21T07:18:09;6.57;;;2.93;;
6467;SDS011;3267;48.794;9.928;2024-02-21T07:20:35;4.73;;;2.60;;
6467;SDS011;3267;48.794;9.928;2024-02-21T07:23:02;5.57;;;2.50;;
6467;SDS011;3267;48.794;9.928;2024-02-21T07:25:28;7.83;;;3.20;;
6467;SDS011;3267;48.794;9.928;2024-02-21T07:27:54;7.03;;;3.20;;
6467;SDS011;3267;48.794;9.928;2024-02-21T07:30:20;8.07;;;4.30;;
6467;SDS011;3267;48.794;9.928;2024-02-21T07:49:56;8.25;;;2.58;;
6467;SDS011;3267;48.794;9.928;2024-02-21T07:52:22;8.38;;;4.13;;
6467;SDS011;3267;48.794;9.928;2024-02-21T07:54:48;12.15;;;4.00;;
6467;SDS011;3267;48.794;9.928;2024-02-21T07:57:14;8.02;;;4.32;;
6467;SDS011;3267;48.794;9.928;2024-02-21T07:59:40;7.82;;;4.18;;
6467;SDS011;3267;48.794;9.928;2024-02-21T08:02:05;7.18;;;3.88;;
6467;SDS011;3267;48.794;9.928;2024-02-21T08:04:32;6.45;;;3.80;;
6467;SDS011;3267;48.794;9.928;2024-02-21T08:06:59;7.40;;;2.95;;
6467;SDS011;3267;48.794;9.928;2024-02-21T08:09:29;9.10;;;3.20;;
6467;SDS011;3267;48.794;9.928;2024-02-21T08:11:55;11.35;;;2.80;;
6467;SDS011;3267;48.794;9.928;2024-02-21T08:14:21;4.32;;;1.75;;
6467;SDS011;3267;48.794;9.928;2024-02-21T08:16:47;5.97;;;2.58;;
6467;SDS011;3267;48.794;9.928;2024-02-21T08:19:13;7.32;;;3.35;;
6467;SDS011;3267;48.794;9.928;2024-02-21T08:21:39;4.20;;;2.00;;
6467;SDS011;3267;48.794;9.928;2024-02-21T08:24:06;3.90;;;1.70;;
6467;SDS011;3267;48.794;9.928;2024-02-21T08:26:32;7.28;;;1.58;;
6467;SDS011;3267;48.794;9.928;2024-02-21T08:28:58;3.30;;;1.45;;
6467;SDS011;3267;48.794;9.928;2024-02-21T08:31:26;3.27;;;1.50;;
6467;SDS011;3267;48.794;9.928;2024-02-21T08:33:59;3.22;;;1.38;;
6467;SDS011;3267;48.794;9.928;2024-02-21T08:36:28;4.05;;;1.67;;
6467;SDS011;3267;48.794;9.928;2024-02-21T08:39:00;4.88;;;1.23;;
6467;SDS011;3267;48.794;9.928;2024-02-21T08:41:29;4.80;;;2.05;;
6467;SDS011;3267;48.794;9.928;2024-02-21T08:43:59;3.75;;;1.85;;
6467;SDS011;3267;48.794;9.928;2024-02-21T08:46:25;5.95;;;1.85;;
6467;SDS011;3267;48.794;9.928;2024-02-21T08:48:52;3.45;;;1.30;;
6467;SDS011;3267;48.794;9.928;2024-02-21T08:51:18;9.18;;;1.92;;
6467;SDS011;3267;48.794;9.928;2024-02-21T08:53:45;4.93;;;2.13;;
6467;SDS011;3267;48.794;9.928;2024-02-21T08:56:11;3.55;;;1.88;;
6467;SDS011;3267;48.794;9.928;2024-02-21T08:58:38;5.10;;;1.83;;
6467;SDS011;3267;48.794;9.928;2024-02-21T09:01:05;3.25;;;1.92;;
6467;SDS011;3267;48.794;9.928;2024-02-21T09:03:32;6.22;;;2.33;;
6467;SDS011;3267;48.794;9.928;2024-02-21T09:06:01;6.15;;;2.50;;
6467;SDS011;3267;48.794;9.928;2024-02-21T09:08:27;6.35;;;1.80;;
6467;SDS011;3267;48.794;9.928;2024-02-21T09:10:55;6.60;;;2.22;;
6467;SDS011;3267;48.794;9.928;2024-02-21T09:13:21;7.57;;;1.63;;
6467;SDS011;3267;48.794;9.928;2024-02-21T09:15:47;3.88;;;1.48;;
6467;SDS011;3267;48.794;9.928;2024-02-21T09:18:14;4.47;;;1.67;;
6467;SDS011;3267;48.794;9.928;2024-02-21T09:20:40;3.97;;;1.80;;
6467;SDS011;3267;48.794;9.928;2024-02-21T09:23:06;3.72;;;1.65;;
6467;SDS011;3267;48.794;9.928;2024-02-21T09:25:31;4.22;;;1.70;;
6467;SDS011;3267;48.794;9.928;2024-02-21T09:27:57;1.63;;;1.33;;
6467;SDS011;3267;48.794;9.928;2024-02-21T09:30:23;3.15;;;1.35;;
6467;SDS011;3267;48.794;9.928;2024-02-21T09:32:49;3.08;;;1.42;;
6467;SDS011;3267;48.794;9.928;2024-02-21T09:35:15;4.47;;;1.40;;
6467;SDS011;3267;48.794;9.928;2024-02-21T09:37:40;2.63;;;1.50;;
6467;SDS011;3267;48.794;9.928;2024-02-21T09:40:06;4.32;;;1.55;;
6467;SDS011;3267;48.794;9.928;2024-02-21T09:42:39;4.03;;;1.35;;
6467;SDS011;3267;48.794;9.928;2024-02-21T09:45:22;6.13;;;1.45;;
6467;SDS011;3267;48.794;9.928;2024-02-21T09:50:40;3.40;;;1.85;;
6467;SDS011;3267;48.794;9.928;2024-02-21T09:53:06;4.28;;;1.55;;
6467;SDS011;3267;48.794;9.928;2024-02-21T09:55:36;3.05;;;1.35;;
6467;SDS011;3267;48.794;9.928;2024-02-21T09:58:05;2.13;;;1.13;;
6467;SDS011;3267;48.794;9.928;2024-02-21T10:00:31;2.58;;;1.35;;
6467;SDS011;3267;48.794;9.928;2024-02-21T10:02:58;4.85;;;1.50;;
6467;SDS011;3267;48.794;9.928;2024-02-21T10:05:24;3.08;;;1.10;;
6467;SDS011;3267;48.794;9.928;2024-02-21T10:07:50;4.50;;;1.88;;
6467;SDS011;3267;48.794;9.928;2024-02-21T10:10:17;4.22;;;1.58;;
6467;SDS011;3267;48.794;9.928;2024-02-21T10:12:52;3.35;;;1.70;;
6467;SDS011;3267;48.794;9.928;2024-02-21T10:15:26;7.65;;;1.95;;
6467;SDS011;3267;48.794;9.928;2024-02-21T10:17:58;3.20;;;1.45;;
6467;SDS011;3267;48.794;9.928;2024-02-21T10:20:25;5.22;;;1.55;;
6467;SDS011;3267;48.794;9.928;2024-02-21T10:23:01;4.10;;;1.63;;
6467;SDS011;3267;48.794;9.928;2024-02-21T10:25:28;4.07;;;1.60;;
6467;SDS011;3267;48.794;9.928;2024-02-21T10:27:55;4.97;;;1.92;;
6467;SDS011;3267;48.794;9.928;2024-02-21T10:30:22;4.10;;;1.75;;
6467;SDS011;3267;48.794;9.928;2024-02-21T10:32:51;3.38;;;1.50;;
6467;SDS011;3267;48.794;9.928;2024-02-21T10:35:30;3.40;;;1.50;;
6467;SDS011;3267;48.794;9.928;2024-02-21T10:37:58;2.97;;;1.33;;
6467;SDS011;3267;48.794;9.928;2024-02-21T10:40:27;3.33;;;1.38;;
6467;SDS011;3267;48.794;9.928;2024-02-21T10:42:58;5.78;;;1.75;;
6467;SDS011;3267;48.794;9.928;2024-02-21T10:45:34;4.47;;;1.70;;
6467;SDS011;3267;48.794;9.928;2024-02-21T10:50:39;3.63;;;1.85;;
6467;SDS011;3267;48.794;9.928;2024-02-21T10:56:16;5.75;;;2.25;;
6467;SDS011;3267;48.794;9.928;2024-02-21T10:58:53;6.50;;;2.10;;
6467;SDS011;3267;48.794;9.928;2024-02-21T11:01:22;4.38;;;1.70;;
6467;SDS011;3267;48.794;9.928;2024-02-21T11:03:49;7.95;;;1.70;;
6467;SDS011;3267;48.794;9.928;2024-02-21T11:06:17;5.28;;;2.00;;
6467;SDS011;3267;48.794;9.928;2024-02-21T11:08:46;4.82;;;2.00;;
6467;SDS011;3267;48.794;9.928;2024-02-21T11:11:13;3.10;;;2.00;;
6467;SDS011;3267;48.794;9.928;2024-02-21T11:13:44;6.20;;;2.00;;
6467;SDS011;3267;48.794;9.928;2024-02-21T11:16:11;3.78;;;1.80;;
6467;SDS011;3267;48.794;9.928;2024-02-21T11:18:47;5.10;;;1.95;;
6467;SDS011;3267;48.794;9.928;2024-02-21T11:21:12;4.20;;;1.85;;
6467;SDS011;3267;48.794;9.928;2024-02-21T11:23:38;4.78;;;1.52;;
6467;SDS011;3267;48.794;9.928;2024-02-21T11:26:10;6.03;;;1.60;;
6467;SDS011;3267;48.794;9.928;2024-02-21T11:28:44;7.35;;;2.00;;
6467;SDS011;3267;48.794;9.928;2024-02-21T11:31:13;6.07;;;1.90;;
6467;SDS011;3267;48.794;9.928;2024-02-21T11:33:40;3.40;;;1.70;;
6467;SDS011;3267;48.794;9.928;2024-02-21T11:36:07;4.43;;;1.63;;
6467;SDS011;3267;48.794;9.928;2024-02-21T11:38:33;4.60;;;1.90;;
6467;SDS011;3267;48.794;9.928;2024-02-21T11:40:59;4.43;;;1.73;;
6467;SDS011;3267;48.794;9.928;2024-02-21T11:43:25;5.03;;;1.67;;
6467;SDS011;3267;48.794;9.928;2024-02-21T11:45:58;2.90;;;1.35;;
6467;SDS011;3267;48.794;9.928;2024-02-21T11:48:31;3.25;;;1.70;;
6467;SDS011;3267;48.794;9.928;2024-02-21T11:50:57;3.38;;;1.52;;
6467;SDS011;3267;48.794;9.928;2024-02-21T11:53:23;2.58;;;1.50;;
6467;SDS011;3267;48.794;9.928;2024-02-21T11:55:49;2.08;;;1.48;;
6467;SDS011;3267;48.794;9.928;2024-02-21T11:58:15;6.25;;;1.73;;
6467;SDS011;3267;48.794;9.928;2024-02-21T12:00:42;4.32;;;1.90;;
6467;SDS011;3267;48.794;9.928;2024-02-21T12:03:08;4.30;;;1.70;;
6467;SDS011;3267;48.794;9.928;2024-02-21T12:05:34;3.30;;;1.50;;
6467;SDS011;3267;48.794;9.928;2024-02-21T12:07:59;3.13;;;1.58;;
6467;SDS011;3267;48.794;9.928;2024-02-21T12:10:26;1.98;;;1.58;;
6467;SDS011;3267;48.794;9.928;2024-02-21T12:13:08;5.88;;;2.00;;
6467;SDS011;3267;48.794;9.928;2024-02-21T12:15:33;2.60;;;1.70;;
6467;SDS011;3267;48.794;9.928;2024-02-21T12:18:00;4.43;;;1.67;;
6467;SDS011;3267;48.794;9.928;2024-02-21T12:20:26;6.55;;;1.80;;
6467;SDS011;3267;48.794;9.928;2024-02-21T12:22:52;4.82;;;1.48;;
6467;SDS011;3267;48.794;9.928;2024-02-21T12:25:19;4.28;;;1.90;;
6467;SDS011;3267;48.794;9.928;2024-02-21T12:27:51;8.32;;;1.90;;
6467;SDS011;3267;48.794;9.928;2024-02-21T12:30:17;2.72;;;1.67;;
6467;SDS011;3267;48.794;9.928;2024-02-21T12:32:44;2.15;;;1.48;;
6467;SDS011;3267;48.794;9.928;2024-02-21T12:35:13;4.25;;;1.45;;
6467;SDS011;3267;48.794;9.928;2024-02-21T12:37:39;4.80;;;1.85;;
6467;SDS011;3267;48.794;9.928;2024-02-21T12:40:08;3.55;;;1.60;;
6467;SDS011;3267;48.794;9.928;2024-02-21T12:42:35;2.13;;;1.83;;
6467;SDS011;3267;48.794;9.928;2024-02-21T12:45:02;4.00;;;1.65;;
6467;SDS011;3267;48.794;9.928;2024-02-21T12:47:28;2.42;;;1.60;;
6467;SDS011;3267;48.794;9.928;2024-02-21T12:49:54;3.47;;;1.52;;
6467;SDS011;3267;48.794;9.928;2024-02-21T12:52:19;4.28;;;1.70;;
6467;SDS011;3267;48.794;9.928;2024-02-21T12:54:45;6.55;;;1.77;;
6467;SDS011;3267;48.794;9.928;2024-02-21T12:57:12;4.22;;;1.60;;
6467;SDS011;3267;48.794;9.928;2024-02-21T12:59:38;2.85;;;1.38;;
6467;SDS011;3267;48.794;9.928;2024-02-21T13:02:07;3.90;;;1.70;;
6467;SDS011;3267;48.794;9.928;2024-02-21T13:04:36;5.70;;;1.73;;
6467;SDS011;3267;48.794;9.928;2024-02-21T13:07:05;4.07;;;1.42;;
6467;SDS011;3267;48.794;9.928;2024-02-21T13:09:31;4.65;;;1.85;;
6467;SDS011;3267;48.794;9.928;2024-02-21T13:11:57;1.60;;;1.50;;
6467;SDS011;3267;48.794;9.928;2024-02-21T13:14:22;2.72;;;1.70;;
6467;SDS011;3267;48.794;9.928;2024-02-21T13:16:48;4.22;;;1.65;;
6467;SDS011;3267;48.794;9.928;2024-02-21T13:19:15;5.40;;;2.05;;
6467;SDS011;3267;48.794;9.928;2024-02-21T13:21:42;3.22;;;1.65;;
6467;SDS011;3267;48.794;9.928;2024-02-21T13:24:08;3.15;;;1.58;;
6467;SDS011;3267;48.794;9.928;2024-02-21T13:26:34;1.95;;;1.33;;
6467;SDS011;3267;48.794;9.928;2024-02-21T13:28:59;5.28;;;1.42;;
6467;SDS011;3267;48.794;9.928;2024-02-21T13:31:25;3.95;;;1.60;;
6467;SDS011;3267;48.794;9.928;2024-02-21T13:33:51;1.65;;;1.23;;
6467;SDS011;3267;48.794;9.928;2024-02-21T13:36:17;5.03;;;1.40;;
6467;SDS011;3267;48.794;9.928;2024-02-21T13:38:44;2.05;;;1.50;;
6467;SDS011;3267;48.794;9.928;2024-02-21T13:41:09;1.90;;;1.50;;
6467;SDS011;3267;48.794;9.928;2024-02-21T13:43:38;3.75;;;1.80;;
6467;SDS011;3267;48.794;9.928;2024-02-21T13:46:04;6.70;;;1.75;;
6467;SDS011;3267;48.794;9.928;2024-02-21T13:48:34;4.90;;;1.70;;
6467;SDS011;3267;48.794;9.928;2024-02-21T13:51:00;2.67;;;1.45;;
6467;SDS011;3267;48.794;9.928;2024-02-21T13:53:28;4.00;;;1.80;;
6467;SDS011;3267;48.794;9.928;2024-02-21T13:55:54;3.80;;;2.22;;
6467;SDS011;3267;48.794;9.928;2024-02-21T13:58:19;12.75;;;1.90;;
6467;SDS011;3267;48.794;9.928;2024-02-21T14:00:46;4.65;;;1.67;;
6467;SDS011;3267;48.794;9.928;2024-02-21T14:03:11;1.80;;;1.50;;
6467;SDS011;3267;48.794;9.928;2024-02-21T14:05:37;2.35;;;1.85;;
6467;SDS011;3267;48.794;9.928;2024-02-21T14:08:05;2.95;;;1.75;;
6467;SDS011;3267;48.794;9.928;2024-02-21T14:10:31;4.00;;;1.80;;
6467;SDS011;3267;48.794;9.928;2024-02-21T14:12:57;3.63;;;1.80;;
6467;SDS011;3267;48.794;9.928;2024-02-21T14:15:23;5.38;;;2.28;;
6467;SDS011;3267;48.794;9.928;2024-02-21T14:17:50;3.05;;;1.75;;
6467;SDS011;3267;48.794;9.928;2024-02-21T14:20:15;3.80;;;1.85;;
6467;SDS011;3267;48.794;9.928;2024-02-21T14:22:41;6.93;;;1.70;;
6467;SDS011;3267;48.794;9.928;2024-02-21T14:25:07;4.90;;;1.67;;
6467;SDS011;3267;48.794;9.928;2024-02-21T14:27:33;2.10;;;1.38;;
6467;SDS011;3267;48.794;9.928;2024-02-21T14:30:01;5.25;;;1.65;;
6467;SDS011;3267;48.794;9.928;2024-02-21T14:32:27;5.90;;;1.58;;
6467;SDS011;3267;48.794;9.928;2024-02-21T14:34:53;1.73;;;1.27;;
6467;SDS011;3267;48.794;9.928;2024-02-21T14:37:19;4.25;;;1.73;;
6467;SDS011;3267;48.794;9.928;2024-02-21T14:39:46;3.17;;;1.67;;
6467;SDS011;3267;48.794;9.928;2024-02-21T14:42:12;4.35;;;2.00;;
6467;SDS011;3267;48.794;9.928;2024-02-21T14:44:38;5.63;;;1.90;;
6467;SDS011;3267;48.794;9.928;2024-02-21T14:47:03;4.78;;;2.30;;
6467;SDS011;3267;48.794;9.928;2024-02-21T14:49:30;5.90;;;1.73;;
6467;SDS011;3267;48.794;9.928;2024-02-21T14:51:55;3.00;;;1.83;;
6467;SDS011;3267;48.794;9.928;2024-02-21T14:54:21;7.28;;;2.15;;
6467;SDS011;3267;48.794;9.928;2024-02-21T14:56:48;3.28;;;1.85;;
6467;SDS011;3267;48.794;9.928;2024-02-21T14:59:14;4.80;;;2.08;;
6467;SDS011;3267;48.794;9.928;2024-02-21T15:01:41;4.32;;;2.10;;
6467;SDS011;3267;48.794;9.928;2024-02-21T15:04:07;3.67;;;2.15;;
6467;SDS011;3267;48.794;9.928;2024-02-21T15:06:33;7.45;;;2.30;;
6467;SDS011;3267;48.794;9.928;2024-02-21T15:09:01;6.75;;;2.25;;
6467;SDS011;3267;48.794;9.928;2024-02-21T15:11:28;2.50;;;1.92;;
6467;SDS011;3267;48.794;9.928;2024-02-21T15:13:54;5.07;;;2.00;;
6467;SDS011;3267;48.794;9.928;2024-02-21T15:16:19;6.22;;;2.22;;
6467;SDS011;3267;48.794;9.928;2024-02-21T15:18:45;9.07;;;3.17;;
6467;SDS011;3267;48.794;9.928;2024-02-21T15:21:10;9.60;;;3.03;;
6467;SDS011;3267;48.794;9.928;2024-02-21T15:23:39;5.20;;;2.30;;
6467;SDS011;3267;48.794;9.928;2024-02-21T15:26:05;5.30;;;2.22;;
6467;SDS011;3267;48.794;9.928;2024-02-21T15:28:31;5.55;;;2.30;;
6467;SDS011;3267;48.794;9.928;2024-02-21T15:30:57;4.20;;;1.73;;
6467;SDS011;3267;48.794;9.928;2024-02-21T15:33:23;4.40;;;2.83;;
6467;SDS011;3267;48.794;9.928;2024-02-21T15:35:48;2.58;;;1.80;;
6467;SDS011;3267;48.794;9.928;2024-02-21T15:38:15;6.00;;;2.10;;
6467;SDS011;3267;48.794;9.928;2024-02-21T15:40:41;2.67;;;2.03;;
6467;SDS011;3267;48.794;9.928;2024-02-21T15:43:07;4.57;;;2.30;;
6467;SDS011;3267;48.794;9.928;2024-02-21T15:45:33;5.78;;;2.10;;
6467;SDS011;3267;48.794;9.928;2024-02-21T15:47:59;4.93;;;2.50;;
6467;SDS011;3267;48.794;9.928;2024-02-21T15:50:25;7.00;;;2.22;;
6467;SDS011;3267;48.794;9.928;2024-02-21T15:52:53;4.95;;;2.35;;
6467;SDS011;3267;48.794;9.928;2024-02-21T15:55:20;3.97;;;2.42;;
6467;SDS011;3267;48.794;9.928;2024-02-21T15:57:46;7.47;;;3.00;;
6467;SDS011;3267;48.794;9.928;2024-02-21T16:00:12;7.97;;;1.80;;
6467;SDS011;3267;48.794;9.928;2024-02-21T16:02:39;4.63;;;2.05;;
6467;SDS011;3267;48.794;9.928;2024-02-21T16:05:08;3.22;;;1.90;;
6467;SDS011;3267;48.794;9.928;2024-02-21T16:07:35;5.95;;;2.15;;
6467;SDS011;3267;48.794;9.928;2024-02-21T16:10:04;5.50;;;1.95;;
6467;SDS011;3267;48.794;9.928;2024-02-21T16:12:30;3.60;;;1.70;;
6467;SDS011;3267;48.794;9.928;2024-02-21T16:14:56;3.65;;;2.17;;
6467;SDS011;3267;48.794;9.928;2024-02-21T16:17:22;8.07;;;3.08;;
6467;SDS011;3267;48.794;9.928;2024-02-21T16:19:48;4.55;;;2.70;;
6467;SDS011;3267;48.794;9.928;2024-02-21T16:22:14;5.95;;;2.42;;
6467;SDS011;3267;48.794;9.928;2024-02-21T16:24:40;4.68;;;2.20;;
6467;SDS011;3267;48.794;9.928;2024-02-21T16:27:06;14.32;;;8.00;;
6467;SDS011;3267;48.794;9.928;2024-02-21T16:29:34;2.75;;;1.75;;
6467;SDS011;3267;48.794;9.928;2024-02-21T16:32:01;7.55;;;1.90;;
6467;SDS011;3267;48.794;9.928;2024-02-21T16:34:27;3.05;;;1.50;;
6467;SDS011;3267;48.794;9.928;2024-02-21T16:36:52;2.97;;;1.70;;
6467;SDS011;3267;48.794;9.928;2024-02-21T16:39:19;2.45;;;1.40;;
6467;SDS011;3267;48.794;9.928;2024-02-21T16:41:45;1.98;;;1.40;;
6467;SDS011;3267;48.794;9.928;2024-02-21T16:44:14;1.48;;;1.30;;
6467;SDS011;3267;48.794;9.928;2024-02-21T16:46:40;1.25;;;1.15;;
6467;SDS011;3267;48.794;9.928;2024-02-21T16:49:05;2.08;;;1.45;;
6467;SDS011;3267;48.794;9.928;2024-02-21T16:51:35;5.72;;;1.50;;
6467;SDS011;3267;48.794;9.928;2024-02-21T16:54:00;3.05;;;1.48;;
6467;SDS011;3267;48.794;9.928;2024-02-21T16:56:30;2.50;;;1.40;;
6467;SDS011;3267;48.794;9.928;2024-02-21T16:58:56;4.35;;;1.60;;
6467;SDS011;3267;48.794;9.928;2024-02-21T17:01:21;2.03;;;1.40;;
6467;SDS011;3267;48.794;9.928;2024-02-21T17:03:47;2.35;;;1.17;;
6467;SDS011;3267;48.794;9.928;2024-02-21T17:06:12;3.58;;;1.40;;
6467;SDS011;3267;48.794;9.928;2024-02-21T17:08:38;1.77;;;1.30;;
6467;SDS011;3267;48.794;9.928;2024-02-21T17:11:06;1.63;;;1.38;;
6467;SDS011;3267;48.794;9.928;2024-02-21T17:13:33;4.30;;;1.42;;
6467;SDS011;3267;48.794;9.928;2024-02-21T17:15:58;3.33;;;1.48;;
6467;SDS011;3267;48.794;9.928;2024-02-21T17:18:24;1.83;;;1.20;;
6467;SDS011;3267;48.794;9.928;2024-02-21T17:20:51;3.42;;;1.75;;
6467;SDS011;3267;48.794;9.928;2024-02-21T17:23:17;1.55;;;1.27;;
6467;SDS011;3267;48.794;9.928;2024-02-21T17:25:43;1.30;;;1.20;;
6467;SDS011;3267;48.794;9.928;2024-02-21T17:28:08;1.45;;;1.35;;
6467;SDS011;3267;48.794;9.928;2024-02-21T17:30:34;3.55;;;1.80;;
6467;SDS011;3267;48.794;9.928;2024-02-21T17:33:02;1.27;;;1.08;;
6467;SDS011;3267;48.794;9.928;2024-02-21T17:35:34;4.35;;;2.60;;
6467;SDS011;3267;48.794;9.928;2024-02-21T17:38:03;2.05;;;1.38;;
6467;SDS011;3267;48.794;9.928;2024-02-21T17:40:32;2.55;;;1.30;;
6467;SDS011;3267;48.794;9.928;2024-02-21T17:42:58;1.58;;;1.48;;
6467;SDS011;3267;48.794;9.928;2024-02-21T17:45:24;1.80;;;1.60;;
6467;SDS011;3267;48.794;9.928;2024-02-21T17:47:50;2.28;;;1.50;;
6467;SDS011;3267;48.794;9.928;2024-02-21T17:50:17;1.95;;;1.50;;
6467;SDS011;3267;48.794;9.928;2024-02-21T17:52:42;1.35;;;1.00;;
6467;SDS011;3267;48.794;9.928;2024-02-21T17:55:08;5.22;;;1.88;;
6467;SDS011;3267;48.794;9.928;2024-02-21T17:57:35;2.30;;;1.55;;
6467;SDS011;3267;48.794;9.928;2024-02-21T18:00:00;3.28;;;1.80;;
6467;SDS011;3267;48.794;9.928;2024-02-21T18:02:27;2.28;;;1.60;;
6467;SDS011;3267;48.794;9.928;2024-02-21T18:04:52;1.42;;;1.33;;
6467;SDS011;3267;48.794;9.928;2024-02-21T18:07:18;3.83;;;2.08;;
6467;SDS011;3267;48.794;9.928;2024-02-21T18:09:45;2.67;;;1.65;;
6467;SDS011;3267;48.794;9.928;2024-02-21T18:12:11;4.47;;;1.73;;
6467;SDS011;3267;48.794;9.928;2024-02-21T18:14:37;1.05;;;1.00;;
6467;SDS011;3267;48.794;9.928;2024-02-21T18:17:03;2.63;;;1.20;;
6467;SDS011;3267;48.794;9.928;2024-02-21T18:19:32;1.85;;;1.65;;
6467;SDS011;3267;48.794;9.928;2024-02-21T18:22:01;4.28;;;1.70;;
6467;SDS011;3267;48.794;9.928;2024-02-21T18:24:27;2.88;;;1.80;;
6467;SDS011;3267;48.794;9.928;2024-02-21T18:26:53;3.58;;;1.70;;
6467;SDS011;3267;48.794;9.928;2024-02-21T18:29:19;1.85;;;1.50;;
6467;SDS011;3267;48.794;9.928;2024-02-21T18:31:44;2.25;;;1.60;;
6467;SDS011;3267;48.794;9.928;2024-02-21T18:34:10;2.17;;;1.35;;
6467;SDS011;3267;48.794;9.928;2024-02-21T18:36:36;2.22;;;1.30;;
6467;SDS011;3267;48.794;9.928;2024-02-21T18:39:02;1.60;;;1.50;;
6467;SDS011;3267;48.794;9.928;2024-02-21T18:41:28;1.42;;;1.17;;
6467;SDS011;3267;48.794;9.928;2024-02-21T18:43:53;1.65;;;1.42;;
6467;SDS011;3267;48.794;9.928;2024-02-21T18:46:19;2.35;;;1.30;;
6467;SDS011;3267;48.794;9.928;2024-02-21T18:48:45;1.33;;;1.25;;
6467;SDS011;3267;48.794;9.928;2024-02-21T18:51:13;1.92;;;1.35;;
6467;SDS011;3267;48.794;9.928;2024-02-21T18:53:40;2.30;;;1.52;;
6467;SDS011;3267;48.794;9.928;2024-02-21T18:56:06;1.98;;;1.48;;
6467;SDS011;3267;48.794;9.928;2024-02-21T18:58:33;1.45;;;1.35;;
6467;SDS011;3267;48.794;9.928;2024-02-21T19:00:58;1.00;;;0.88;;
6467;SDS011;3267;48.794;9.928;2024-02-21T19:03:24;1.35;;;1.10;;
6467;SDS011;3267;48.794;9.928;2024-02-21T19:05:50;1.67;;;1.10;;
6467;SDS011;3267;48.794;9.928;2024-02-21T19:08:16;0.85;;;0.85;;
6467;SDS011;3267;48.794;9.928;2024-02-21T19:10:42;3.15;;;1.60;;
6467;SDS011;3267;48.794;9.928;2024-02-21T19:13:08;9.80;;;5.57;;
6467;SDS011;3267;48.794;9.928;2024-02-21T19:15:37;5.30;;;2.90;;
6467;SDS011;3267;48.794;9.928;2024-02-21T19:18:06;1.17;;;1.08;;
6467;SDS011;3267;48.794;9.928;2024-02-21T19:20:32;3.47;;;1.25;;
6467;SDS011;3267;48.794;9.928;2024-02-21T19:22:58;1.17;;;1.02;;
6467;SDS011;3267;48.794;9.928;2024-02-21T19:25:23;0.70;;;0.70;;
6467;SDS011;3267;48.794;9.928;2024-02-21T19:27:49;1.17;;;0.98;;
6467;SDS011;3267;48.794;9.928;2024-02-21T19:30:18;0.95;;;0.95;;
6467;SDS011;3267;48.794;9.928;2024-02-21T19:32:46;0.95;;;0.95;;
6467;SDS011;3267;48.794;9.928;2024-02-21T19:35:12;0.80;;;0.80;;
6467;SDS011;3267;48.794;9.928;2024-02-21T19:37:38;0.93;;;0.93;;
6467;SDS011;3267;48.794;9.928;2024-02-21T19:40:07;1.50;;;1.00;;
6467;SDS011;3267;48.794;9.928;2024-02-21T19:42:34;0.88;;;0.88;;
6467;SDS011;3267;48.794;9.928;2024-02-21T19:44:59;0.90;;;0.90;;
6467;SDS011;3267;48.794;9.928;2024-02-21T19:47:28;1.13;;;1.00;;
6467;SDS011;3267;48.794;9.928;2024-02-21T19:49:54;0.60;;;0.60;;
6467;SDS011;3267;48.794;9.928;2024-02-21T19:52:19;1.50;;;1.00;;
6467;SDS011;3267;48.794;9.928;2024-02-21T19:54:45;0.70;;;0.70;;
6467;SDS011;3267;48.794;9.928;2024-02-21T19:57:10;0.82;;;0.82;;
6467;SDS011;3267;48.794;9.928;2024-02-21T19:59:39;0.70;;;0.70;;
6467;SDS011;3267;48.794;9.928;2024-02-21T20:02:05;1.00;;;1.00;;
6467;SDS011;3267;48.794;9.928;2024-02-21T20:04:31;1.27;;;1.02;;
6467;SDS011;3267;48.794;9.928;2024-02-21T20:06:58;2.10;;;1.00;;
6467;SDS011;3267;48.794;9.928;2024-02-21T20:09:24;0.98;;;0.98;;
6467;SDS011;3267;48.794;9.928;2024-02-21T20:11:53;0.93;;;0.88;;
6467;SDS011;3267;48.794;9.928;2024-02-21T20:14:19;0.55;;;0.55;;
6467;SDS011;3267;48.794;9.928;2024-02-21T20:16:45;1.02;;;0.90;;
6467;SDS011;3267;48.794;9.928;2024-02-21T20:19:16;0.98;;;0.90;;
6467;SDS011;3267;48.794;9.928;2024-02-21T20:21:42;1.10;;;0.70;;
6467;SDS011;3267;48.794;9.928;2024-02-21T20:24:09;0.88;;;0.88;;
6467;SDS011;3267;48.794;9.928;2024-02-21T20:26:36;1.75;;;1.00;;
6467;SDS011;3267;48.794;9.928;2024-02-21T20:29:09;0.90;;;0.90;;
6467;SDS011;3267;48.794;9.928;2024-02-21T20:31:39;2.78;;;0.80;;
6467;SDS011;3267;48.794;9.928;2024-02-21T20:34:08;0.60;;;0.60;;
6467;SDS011;3267;48.794;9.928;2024-02-21T20:36:34;0.80;;;0.80;;
6467;SDS011;3267;48.794;9.928;2024-02-21T20:39:00;0.95;;;0.70;;
6467;SDS011;3267;48.794;9.928;2024-02-21T20:41:25;0.98;;;0.98;;
6467;SDS011;3267;48.794;9.928;2024-02-21T20:43:51;0.90;;;0.77;;
6467;SDS011;3267;48.794;9.928;2024-02-21T20:46:17;1.52;;;0.70;;
6467;SDS011;3267;48.794;9.928;2024-02-21T20:48:42;0.90;;;0.88;;
6467;SDS011;3267;48.794;9.928;2024-02-21T20:51:08;2.22;;;0.82;;
6467;SDS011;3267;48.794;9.928;2024-02-21T20:53:34;0.65;;;0.65;;